Time;durP1;ratioP1;P1;durP2;ratioP2;P2;SDS_P1;SDS_P2;PMS_P1;PMS_P2;Temp;Humidity;BMP_temperature;BMP_pressure;BME280_temperature;BME280_humidity;BME280_pressure;Samples;Min_cycle;Max_cycle;Signal;HPM_P1;HPM_P2
2021/12/07 00:01:19;;;;;;;;;;;3.70;99.90;;;;;;5008172;28;19913;-73
2021/12/07 00:03:45;;;;;;;;;;;3.80;99.90;;;;;;5011357;28;19960;-73
2021/12/07 00:06:10;;;;;;;;;;;3.80;99.90;;;;;;5014084;28;19973;-73
2021/12/07 00:08:36;;;;;;;;;;;3.90;99.90;;;;;;5011127;28;19924;-73
2021/12/07 00:11:02;;;;;;;;;;;3.90;99.90;;;;;;5010875;28;19917;-73
2021/12/07 00:13:32;;;;;;;;;;;4.00;99.90;;;;;;5010293;28;19937;-72
2021/12/07 00:15:58;;;;;;;;;;;4.10;99.90;;;;;;5018847;28;19910;-73
2021/12/07 00:18:24;;;;;;;;;;;4.10;99.90;;;;;;5019080;28;19913;-72
2021/12/07 00:20:50;;;;;;;;;;;4.10;99.90;;;;;;5030125;28;19909;-72
2021/12/07 00:23:16;;;;;;;;;;;4.20;99.90;;;;;;5014706;28;19924;-73
2021/12/07 00:25:41;;;;;;;;;;;4.20;99.90;;;;;;5009965;28;19914;-72
2021/12/07 00:28:07;;;;;;;;;;;4.30;99.90;;;;;;5025327;28;19913;-72
2021/12/07 00:30:34;;;;;;;;;;;4.40;99.90;;;;;;5009951;28;19914;-72
2021/12/07 00:33:10;;;;;;;;;;;4.40;99.90;;;;;;5009972;28;20525;-72
2021/12/07 00:35:36;;;;;;;;;;;4.40;99.90;;;;;;5012565;28;19924;-72
2021/12/07 00:38:08;;;;;;;;;;;4.50;99.90;;;;;;5010165;28;19913;-72
2021/12/07 00:40:33;;;;;;;;;;;4.50;99.90;;;;;;5010293;28;19913;-73
2021/12/07 00:42:59;;;;;;;;;;;4.60;99.90;;;;;;5010100;28;19913;-71
2021/12/07 00:45:25;;;;;;;;;;;4.70;99.90;;;;;;5010433;28;19917;-71
2021/12/07 00:47:51;;;;;;;;;;;4.80;99.90;;;;;;5009942;28;20361;-71
2021/12/07 00:50:18;;;;;;;;;;;4.90;99.90;;;;;;5019652;28;20320;-71
2021/12/07 00:52:44;;;;;;;;;;;4.90;99.90;;;;;;5035258;28;19921;-71
2021/12/07 00:55:10;;;;;;;;;;;5.10;99.90;;;;;;5065169;28;19955;-72
2021/12/07 00:57:36;;;;;;;;;;;5.10;99.90;;;;;;5036901;28;19913;-70
2021/12/07 01:00:06;;;;;;;;;;;5.10;99.90;;;;;;5027554;28;19917;-69
2021/12/07 01:02:31;;;;;;;;;;;5.30;99.90;;;;;;5014716;28;20271;-69
2021/12/07 01:05:03;;;;;;;;;;;5.30;99.90;;;;;;5009366;28;20064;-75
2021/12/07 01:26:48;;;;;;;;;;;5.70;99.90;;;;;;5009379;28;20060;-70
2021/12/07 01:29:15;;;;;;;;;;;5.70;99.90;;;;;;5007324;28;19963;-70
2021/12/07 01:34:27;;;;;;;;;;;5.60;99.90;;;;;;5010169;28;20318;-70
2021/12/07 01:45:12;;;;;;;;;;;5.60;99.90;;;;;;5010854;28;20600;-69
2021/12/07 01:47:57;;;;;;;;;;;5.50;99.90;;;;;;5008445;28;19997;-69
2021/12/07 02:01:05;;;;;;;;;;;5.50;99.90;;;;;;5008181;28;20289;-69
2021/12/07 02:03:30;;;;;;;;;;;5.50;99.90;;;;;;5008417;28;19917;-70
2021/12/07 02:05:56;;;;;;;;;;;5.50;99.90;;;;;;5010186;28;20408;-69
2021/12/07 02:08:22;;;;;;;;;;;5.50;99.90;;;;;;5012941;28;20292;-69
2021/12/07 02:10:47;;;;;;;;;;;5.50;99.90;;;;;;5008360;28;19913;-70
2021/12/07 02:15:57;;;;;;;;;;;5.40;99.90;;;;;;5009806;28;19913;-68
2021/12/07 02:18:23;;;;;;;;;;;5.50;99.90;;;;;;5008627;28;19925;-69
2021/12/07 02:20:49;;;;;;;;;;;5.50;99.90;;;;;;5008374;28;19913;-68
2021/12/07 02:23:15;;;;;;;;;;;5.50;99.90;;;;;;5023712;28;19913;-71
2021/12/07 02:25:41;;;;;;;;;;;5.50;99.90;;;;;;5008159;28;19918;-69
2021/12/07 02:28:14;;;;;;;;;;;5.60;99.90;;;;;;5008024;28;19928;-69
2021/12/07 02:30:40;;;;;;;;;;;5.50;99.90;;;;;;5008174;28;20186;-69
2021/12/07 02:33:05;;;;;;;;;;;5.50;99.90;;;;;;5007989;28;19909;-69
2021/12/07 02:35:31;;;;;;;;;;;5.60;99.90;;;;;;5008575;28;20357;-69
2021/12/07 02:37:57;;;;;;;;;;;5.50;99.90;;;;;;5007644;28;19936;-70
2021/12/07 02:40:23;;;;;;;;;;;5.50;99.90;;;;;;5007597;28;19922;-71
2021/12/07 02:42:48;;;;;;;;;;;5.40;99.90;;;;;;5008191;28;19916;-70
2021/12/07 02:45:14;;;;;;;;;;;5.40;99.90;;;;;;5006923;28;20285;-69
2021/12/07 02:47:39;;;;;;;;;;;5.30;99.90;;;;;;5008311;28;19920;-69
2021/12/07 02:50:06;;;;;;;;;;;5.30;99.90;;;;;;5007707;28;19936;-69
2021/12/07 02:52:31;;;;;;;;;;;5.30;99.90;;;;;;5007935;28;19909;-69
2021/12/07 02:54:57;;;;;;;;;;;5.30;99.90;;;;;;5007414;28;19913;-69
2021/12/07 02:57:22;;;;;;;;;;;5.30;99.90;;;;;;5007776;28;20461;-70
2021/12/07 02:59:57;;;;;;;;;;;5.30;99.90;;;;;;5022860;28;19910;-69
2021/12/07 03:02:23;;;;;;;;;;;5.30;99.90;;;;;;5007217;28;20310;-69
2021/12/07 03:05:08;;;;;;;;;;;5.30;99.90;;;;;;5007748;28;19924;-70
2021/12/07 03:07:50;;;;;;;;;;;5.30;99.90;;;;;;5022990;28;20233;-70
2021/12/07 03:26:42;;;;;;;;;;;5.50;99.90;;;;;;5008439;28;20253;-70
2021/12/07 03:29:07;;;;;;;;;;;5.50;99.90;;;;;;5008945;28;20317;-69
2021/12/07 03:31:33;;;;;;;;;;;5.50;99.90;;;;;;5010451;28;20420;-70
2021/12/07 03:34:00;;;;;;;;;;;5.50;99.90;;;;;;5010455;28;19909;-69
2021/12/07 03:36:26;;;;;;;;;;;5.50;99.90;;;;;;5013700;28;19917;-70
2021/12/07 03:38:52;;;;;;;;;;;5.50;99.90;;;;;;5013344;28;19921;-70
2021/12/07 03:41:18;;;;;;;;;;;5.50;99.90;;;;;;5017054;28;20247;-68
2021/12/07 03:43:43;;;;;;;;;;;5.50;99.90;;;;;;5017761;28;19917;-69
2021/12/07 03:46:09;;;;;;;;;;;5.50;99.90;;;;;;5011356;28;19920;-70
2021/12/07 03:48:35;;;;;;;;;;;5.60;99.90;;;;;;5010009;28;20043;-69
2021/12/07 03:51:00;;;;;;;;;;;5.70;99.90;;;;;;5009146;28;19949;-70
2021/12/07 03:53:28;;;;;;;;;;;5.60;99.90;;;;;;5008888;28;19914;-69
2021/12/07 03:55:53;;;;;;;;;;;5.70;99.90;;;;;;4993220;28;19913;-69
2021/12/07 03:58:19;;;;;;;;;;;5.70;99.90;;;;;;5008363;28;20004;-69
2021/12/07 04:00:46;;;;;;;;;;;5.70;99.90;;;;;;5009151;28;20282;-69
2021/12/07 04:03:14;;;;;;;;;;;5.60;99.90;;;;;;5009930;28;20313;-67
2021/12/07 04:05:48;;;;;;;;;;;5.60;99.90;;;;;;5036193;28;19913;-69
2021/12/07 04:08:15;;;;;;;;;;;5.60;99.90;;;;;;5008099;28;19964;-69
2021/12/07 04:10:41;;;;;;;;;;;5.50;99.90;;;;;;5008045;28;19960;-69
2021/12/07 04:13:06;;;;;;;;;;;5.50;99.90;;;;;;5023876;28;19918;-69
2021/12/07 04:15:32;;;;;;;;;;;5.50;99.90;;;;;;5011905;28;19920;-70
2021/12/07 04:17:58;;;;;;;;;;;5.30;99.90;;;;;;5025430;28;20259;-68
2021/12/07 04:20:24;;;;;;;;;;;5.30;99.90;;;;;;5028415;28;20000;-68
2021/12/07 04:22:50;;;;;;;;;;;5.30;99.90;;;;;;5017417;28;20386;-69
2021/12/07 04:25:16;;;;;;;;;;;5.40;99.90;;;;;;5026169;28;20012;-70
2021/12/07 04:27:41;;;;;;;;;;;5.40;99.90;;;;;;5010608;28;19967;-69
2021/12/07 04:30:09;;;;;;;;;;;5.50;99.90;;;;;;5011449;28;19921;-69
2021/12/07 04:32:34;;;;;;;;;;;5.40;99.90;;;;;;5013480;28;19920;-67
2021/12/07 04:35:00;;;;;;;;;;;5.40;99.90;;;;;;5014258;28;20515;-69
2021/12/07 04:37:25;;;;;;;;;;;5.40;99.90;;;;;;5030646;28;19909;-68
2021/12/07 04:39:51;;;;;;;;;;;5.20;99.90;;;;;;5030975;28;19910;-69
2021/12/07 04:42:16;;;;;;;;;;;5.20;99.90;;;;;;5020953;28;19920;-68
2021/12/07 04:44:50;;;;;;;;;;;5.10;99.90;;;;;;5009528;28;19913;-69
2021/12/07 04:47:24;;;;;;;;;;;5.10;99.90;;;;;;5008490;28;19915;-69
2021/12/07 04:50:08;;;;;;;;;;;5.10;99.90;;;;;;5005024;28;20318;-68
2021/12/07 04:58:02;;;;;;;;;;;5.00;99.90;;;;;;5013542;28;20000;-67
2021/12/07 05:00:28;;;;;;;;;;;5.20;99.90;;;;;;5009681;28;20374;-69
2021/12/07 05:02:58;;;;;;;;;;;5.20;99.90;;;;;;5009977;28;20006;-69
2021/12/07 05:05:28;;;;;;;;;;;5.10;99.90;;;;;;5009526;28;19921;-69
2021/12/07 05:07:55;;;;;;;;;;;5.00;99.90;;;;;;5018713;28;19966;-68
2021/12/07 05:10:31;;;;;;;;;;;5.10;99.90;;;;;;5021412;28;19914;-67
2021/12/07 05:16:01;;;;;;;;;;;5.10;99.90;;;;;;5010065;28;19909;-69
2021/12/07 05:18:51;;;;;;;;;;;5.00;99.90;;;;;;5008273;28;19913;-68
2021/12/07 05:24:06;;;;;;;;;;;5.00;99.90;;;;;;5010077;28;19919;-68
2021/12/07 05:37:47;;;;;;;;;;;5.00;99.90;;;;;;5032012;28;19920;-68
2021/12/07 05:40:15;;;;;;;;;;;5.00;99.90;;;;;;5014877;28;19920;-69
2021/12/07 05:42:40;;;;;;;;;;;5.10;99.90;;;;;;5008558;28;19913;-69
2021/12/07 05:45:07;;;;;;;;;;;5.00;99.90;;;;;;5008636;28;20452;-68
2021/12/07 05:47:33;;;;;;;;;;;5.00;99.90;;;;;;5009855;28;19985;-69
2021/12/07 05:49:58;;;;;;;;;;;5.00;99.90;;;;;;5008725;28;19917;-68
2021/12/07 05:52:24;;;;;;;;;;;4.90;99.90;;;;;;5008653;28;19925;-68
2021/12/07 05:54:50;;;;;;;;;;;4.90;99.90;;;;;;5018579;28;20267;-69
2021/12/07 05:57:15;;;;;;;;;;;4.90;99.90;;;;;;5006311;28;19995;-68
2021/12/07 05:59:41;;;;;;;;;;;4.90;99.90;;;;;;5008270;28;19913;-68
2021/12/07 06:02:06;;;;;;;;;;;4.90;99.90;;;;;;5010477;28;19933;-69
2021/12/07 06:04:32;;;;;;;;;;;4.80;99.90;;;;;;5010234;28;20125;-68
2021/12/07 06:06:58;;;;;;;;;;;4.70;99.90;;;;;;5020996;28;20051;-68
2021/12/07 06:09:23;;;;;;;;;;;4.80;99.90;;;;;;5023465;28;19917;-69
2021/12/07 06:11:50;;;;;;;;;;;4.80;99.90;;;;;;5004326;28;20162;-69
2021/12/07 06:14:19;;;;;;;;;;;4.70;99.90;;;;;;5009605;28;20310;-70
2021/12/07 06:16:45;;;;;;;;;;;4.70;99.90;;;;;;5008837;28;19961;-70
2021/12/07 06:19:10;;;;;;;;;;;4.50;99.90;;;;;;5008233;28;19917;-69
2021/12/07 06:21:36;;;;;;;;;;;4.50;99.90;;;;;;5007999;28;20000;-68
2021/12/07 06:24:01;;;;;;;;;;;4.40;99.90;;;;;;5022934;28;19910;-69
2021/12/07 06:26:27;;;;;;;;;;;4.30;99.90;;;;;;5008515;28;19909;-69
2021/12/07 06:28:52;;;;;;;;;;;4.30;99.90;;;;;;5006535;28;19961;-68
2021/12/07 06:31:18;;;;;;;;;;;4.30;99.90;;;;;;5007902;28;19921;-69
2021/12/07 06:33:43;;;;;;;;;;;4.20;99.90;;;;;;5008635;28;19920;-69
2021/12/07 06:36:09;;;;;;;;;;;4.10;99.90;;;;;;5007651;28;20008;-68
2021/12/07 06:38:35;;;;;;;;;;;4.10;99.90;;;;;;5007893;28;19917;-69
2021/12/07 06:41:01;;;;;;;;;;;4.10;99.90;;;;;;5013744;28;20390;-68
2021/12/07 06:43:27;;;;;;;;;;;4.10;99.90;;;;;;5007019;28;19956;-68
2021/12/07 06:45:53;;;;;;;;;;;4.10;99.90;;;;;;5010615;28;19941;-70
2021/12/07 06:48:18;;;;;;;;;;;4.20;99.90;;;;;;5008797;28;20389;-69
2021/12/07 06:50:44;;;;;;;;;;;4.10;99.90;;;;;;5006591;28;19917;-69
2021/12/07 06:53:10;;;;;;;;;;;4.10;99.90;;;;;;5025311;28;20122;-69
2021/12/07 06:55:35;;;;;;;;;;;4.00;99.90;;;;;;5009310;28;19959;-69
2021/12/07 06:58:01;;;;;;;;;;;4.00;99.90;;;;;;5013018;28;19922;-69
2021/12/07 07:00:26;;;;;;;;;;;4.00;99.90;;;;;;5011768;28;19909;-69
2021/12/07 07:02:52;;;;;;;;;;;3.80;99.90;;;;;;5013173;28;19909;-68
2021/12/07 07:05:17;;;;;;;;;;;3.80;99.90;;;;;;5014831;28;20344;-70
2021/12/07 07:07:43;;;;;;;;;;;3.80;99.90;;;;;;5024575;28;19913;-71
2021/12/07 07:10:11;;;;;;;;;;;3.80;99.90;;;;;;5040034;28;20101;-70
2021/12/07 07:12:36;;;;;;;;;;;3.80;99.90;;;;;;5037911;28;19913;-68
2021/12/07 07:15:02;;;;;;;;;;;3.80;99.90;;;;;;5033468;28;19913;-69
2021/12/07 07:17:28;;;;;;;;;;;3.80;99.90;;;;;;5032303;28;19916;-71
2021/12/07 07:19:53;;;;;;;;;;;3.90;99.90;;;;;;5031556;28;19917;-69
2021/12/07 07:22:19;;;;;;;;;;;3.80;99.90;;;;;;5031707;28;19956;-71
2021/12/07 07:24:45;;;;;;;;;;;3.80;99.90;;;;;;5031822;28;20031;-69
2021/12/07 07:27:10;;;;;;;;;;;3.80;99.90;;;;;;5032050;28;19920;-69
2021/12/07 07:29:36;;;;;;;;;;;3.80;99.90;;;;;;5031343;28;19913;-70
2021/12/07 07:32:02;;;;;;;;;;;3.80;99.90;;;;;;5024380;28;19917;-70
2021/12/07 07:34:27;;;;;;;;;;;3.80;99.90;;;;;;5011951;28;19910;-69
2021/12/07 07:36:53;;;;;;;;;;;3.80;99.90;;;;;;5025272;28;19909;-69
2021/12/07 07:39:18;;;;;;;;;;;3.80;99.90;;;;;;5031563;28;20397;-71
2021/12/07 07:41:44;;;;;;;;;;;3.70;99.90;;;;;;5031775;28;19920;-70
2021/12/07 07:44:09;;;;;;;;;;;3.70;99.90;;;;;;5017111;28;20262;-69
2021/12/07 07:46:35;;;;;;;;;;;3.80;99.90;;;;;;5012631;28;19917;-71
2021/12/07 07:49:00;;;;;;;;;;;3.90;99.90;;;;;;5011834;28;19924;-70
2021/12/07 07:51:26;;;;;;;;;;;3.80;99.90;;;;;;5011530;28;20305;-70
2021/12/07 07:53:54;;;;;;;;;;;3.90;99.90;;;;;;5015647;28;20020;-69
2021/12/07 07:56:19;;;;;;;;;;;4.00;99.90;;;;;;5035416;28;19917;-69
2021/12/07 07:58:45;;;;;;;;;;;3.90;99.90;;;;;;5037317;28;19913;-69
2021/12/07 08:01:11;;;;;;;;;;;3.80;99.90;;;;;;5038038;28;19909;-70
2021/12/07 08:03:36;;;;;;;;;;;3.80;99.90;;;;;;5033700;28;19913;-67
2021/12/07 08:06:02;;;;;;;;;;;3.80;99.90;;;;;;5029056;28;19920;-69
2021/12/07 08:08:27;;;;;;;;;;;3.70;99.90;;;;;;5011265;28;19918;-69
2021/12/07 08:10:53;;;;;;;;;;;3.70;99.90;;;;;;5026157;28;20014;-69
2021/12/07 08:13:19;;;;;;;;;;;3.70;99.90;;;;;;5011389;28;19952;-71
2021/12/07 08:15:46;;;;;;;;;;;3.80;99.90;;;;;;5010709;28;19963;-69
2021/12/07 08:18:12;;;;;;;;;;;3.80;99.90;;;;;;5011074;28;19909;-69
2021/12/07 08:20:38;;;;;;;;;;;3.80;99.90;;;;;;5010745;28;20273;-68
2021/12/07 08:23:04;;;;;;;;;;;3.80;99.90;;;;;;5018744;28;19913;-69
2021/12/07 08:25:41;;;;;;;;;;;3.80;99.90;;;;;;5028121;28;20408;-69
2021/12/07 08:28:07;;;;;;;;;;;3.80;99.90;;;;;;5030240;28;19914;-68
2021/12/07 08:30:34;;;;;;;;;;;3.80;99.90;;;;;;5029843;28;19963;-69
2021/12/07 08:32:59;;;;;;;;;;;3.70;99.90;;;;;;5012963;28;19913;-70
2021/12/07 08:35:25;;;;;;;;;;;3.90;99.90;;;;;;5009646;28;20432;-70
2021/12/07 08:37:50;;;;;;;;;;;3.90;99.90;;;;;;5010696;28;19910;-68
2021/12/07 08:40:17;;;;;;;;;;;3.80;99.90;;;;;;5010858;28;20310;-70
2021/12/07 08:42:43;;;;;;;;;;;3.80;99.90;;;;;;5011213;28;19914;-69
2021/12/07 08:45:09;;;;;;;;;;;3.80;99.90;;;;;;5009745;28;19972;-69
2021/12/07 08:47:35;;;;;;;;;;;3.90;99.90;;;;;;5009676;28;20333;-69
2021/12/07 08:50:01;;;;;;;;;;;3.90;99.90;;;;;;5009118;28;19921;-69
2021/12/07 08:52:27;;;;;;;;;;;3.90;99.90;;;;;;5009476;28;20216;-69
2021/12/07 09:00:07;;;;;;;;;;;3.90;99.90;;;;;;5032563;28;19924;-68
2021/12/07 09:02:33;;;;;;;;;;;3.80;99.90;;;;;;5024300;28;19917;-69
2021/12/07 09:04:59;;;;;;;;;;;3.80;99.90;;;;;;5010000;28;19921;-69
2021/12/07 09:07:24;;;;;;;;;;;3.90;99.90;;;;;;5010177;28;19918;-69
2021/12/07 09:09:50;;;;;;;;;;;3.80;99.90;;;;;;5025804;28;19913;-69
2021/12/07 09:12:16;;;;;;;;;;;3.80;99.90;;;;;;5008705;28;20371;-68
2021/12/07 09:14:43;;;;;;;;;;;3.80;99.90;;;;;;5010896;28;19917;-69
2021/12/07 09:17:09;;;;;;;;;;;3.90;99.90;;;;;;5012733;28;19914;-70
2021/12/07 09:19:34;;;;;;;;;;;3.90;99.90;;;;;;5008942;28;19914;-69
2021/12/07 09:22:00;;;;;;;;;;;3.90;99.90;;;;;;5009527;28;19920;-70
2021/12/07 09:24:26;;;;;;;;;;;3.90;99.90;;;;;;5010679;28;20394;-69
2021/12/07 09:26:52;;;;;;;;;;;4.00;99.90;;;;;;5022866;28;19916;-69
2021/12/07 09:29:17;;;;;;;;;;;4.10;99.90;;;;;;5002865;28;20004;-68
2021/12/07 09:31:43;;;;;;;;;;;4.20;99.90;;;;;;5011411;28;19916;-69
2021/12/07 09:34:11;;;;;;;;;;;4.20;99.90;;;;;;5011269;28;19910;-70
2021/12/07 09:36:37;;;;;;;;;;;4.30;99.90;;;;;;5022263;28;20408;-69
2021/12/07 09:39:04;;;;;;;;;;;4.30;99.90;;;;;;5030923;28;19917;-71
2021/12/07 09:41:29;;;;;;;;;;;4.40;99.90;;;;;;5031197;28;19909;-68
2021/12/07 09:43:55;;;;;;;;;;;4.40;99.90;;;;;;5031144;28;20374;-72
2021/12/07 09:46:20;;;;;;;;;;;4.40;99.90;;;;;;5030882;28;19909;-70
2021/12/07 09:48:46;;;;;;;;;;;4.40;99.90;;;;;;5020231;28;19917;-69
2021/12/07 09:51:16;;;;;;;;;;;4.50;99.90;;;;;;5010589;28;19917;-69
2021/12/07 09:53:42;;;;;;;;;;;4.60;99.90;;;;;;5010808;28;19918;-68
2021/12/07 09:56:08;;;;;;;;;;;4.60;99.90;;;;;;5025903;28;20374;-69
2021/12/07 09:58:34;;;;;;;;;;;4.60;99.90;;;;;;5016380;28;19909;-68
2021/12/07 10:01:00;;;;;;;;;;;4.70;99.90;;;;;;5010208;28;19918;-69
2021/12/07 10:03:25;;;;;;;;;;;4.80;99.90;;;;;;4999716;28;19921;-69
2021/12/07 10:05:52;;;;;;;;;;;4.80;99.90;;;;;;5006436;28;19949;-71
2021/12/07 10:08:17;;;;;;;;;;;4.90;99.90;;;;;;5009669;28;19913;-69
2021/12/07 10:10:48;;;;;;;;;;;5.00;99.90;;;;;;5008588;28;20004;-69
2021/12/07 10:13:14;;;;;;;;;;;5.00;99.90;;;;;;5009018;28;20020;-69
2021/12/07 10:15:40;;;;;;;;;;;5.00;99.90;;;;;;4999045;28;19924;-70
2021/12/07 10:18:09;;;;;;;;;;;5.00;99.90;;;;;;5022446;28;20356;-70
2021/12/07 10:20:48;;;;;;;;;;;5.00;99.90;;;;;;5017456;28;20411;-70
2021/12/07 10:23:14;;;;;;;;;;;5.10;99.90;;;;;;4985982;28;19917;-70
2021/12/07 10:25:40;;;;;;;;;;;5.20;99.90;;;;;;4985920;28;20189;-68
2021/12/07 10:28:23;;;;;;;;;;;5.30;99.90;;;;;;5003549;28;21186;-71
2021/12/07 10:30:49;;;;;;;;;;;5.20;99.90;;;;;;5000369;28;19913;-70
2021/12/07 10:33:16;;;;;;;;;;;5.40;99.90;;;;;;5012258;28;19920;-69
2021/12/07 10:35:41;;;;;;;;;;;5.50;99.90;;;;;;5013690;28;20569;-70
2021/12/07 10:38:07;;;;;;;;;;;5.50;99.90;;;;;;5029000;28;20507;-69
2021/12/07 10:40:32;;;;;;;;;;;5.50;99.90;;;;;;5016495;28;20232;-69
2021/12/07 10:42:58;;;;;;;;;;;5.50;99.90;;;;;;5009563;28;19917;-70
2021/12/07 10:45:27;;;;;;;;;;;5.60;99.90;;;;;;5018861;28;19920;-69
2021/12/07 10:47:52;;;;;;;;;;;5.60;99.90;;;;;;5004720;28;19918;-70
2021/12/07 10:50:18;;;;;;;;;;;5.60;99.90;;;;;;5007901;28;19914;-71
2021/12/07 10:52:45;;;;;;;;;;;5.70;99.90;;;;;;5021255;28;19909;-70
2021/12/07 10:55:15;;;;;;;;;;;5.60;99.90;;;;;;5020871;28;19999;-69
2021/12/07 10:57:54;;;;;;;;;;;5.60;99.90;;;;;;5007791;28;19913;-69
2021/12/07 11:00:28;;;;;;;;;;;5.80;99.90;;;;;;5017220;28;20021;-69
2021/12/07 11:03:00;;;;;;;;;;;5.90;99.90;;;;;;5004762;28;20174;-69
2021/12/07 11:05:30;;;;;;;;;;;5.80;99.90;;;;;;5005788;28;19932;-71
2021/12/07 11:07:57;;;;;;;;;;;5.90;99.90;;;;;;5023843;28;19913;-71
2021/12/07 11:10:31;;;;;;;;;;;5.90;99.90;;;;;;5024936;28;19909;-71
2021/12/07 11:13:19;;;;;;;;;;;5.90;99.90;;;;;;5025981;28;19916;-70
2021/12/07 11:15:51;;;;;;;;;;;5.90;99.90;;;;;;5026972;28;20213;-71
2021/12/07 11:18:27;;;;;;;;;;;6.00;99.90;;;;;;5028266;28;19913;-72
2021/12/07 11:20:54;;;;;;;;;;;6.10;99.90;;;;;;5028751;28;19910;-70
2021/12/07 11:23:21;;;;;;;;;;;6.10;99.90;;;;;;5006133;28;19975;-72
2021/12/07 11:31:22;;;;;;;;;;;6.90;99.90;;;;;;5021509;28;20167;-72
2021/12/07 11:33:48;;;;;;;;;;;7.10;99.90;;;;;;5033625;28;19993;-70
2021/12/07 11:36:15;;;;;;;;;;;7.10;99.90;;;;;;5023073;28;19914;-70
2021/12/07 11:38:40;;;;;;;;;;;7.50;99.90;;;;;;5009756;28;19909;-69
2021/12/07 11:41:20;;;;;;;;;;;7.50;99.90;;;;;;5008280;28;19944;-71
2021/12/07 11:43:50;;;;;;;;;;;7.50;99.90;;;;;;5006462;28;19909;-71
2021/12/07 11:46:22;;;;;;;;;;;7.40;99.90;;;;;;5010966;28;19945;-71
2021/12/07 11:48:48;;;;;;;;;;;7.60;99.90;;;;;;5009101;28;19970;-69
2021/12/07 11:51:13;;;;;;;;;;;7.60;99.90;;;;;;5009940;28;20019;-72
2021/12/07 11:53:39;;;;;;;;;;;7.50;99.90;;;;;;5029531;28;20329;-70
2021/12/07 11:56:04;;;;;;;;;;;7.60;99.90;;;;;;5032505;28;19910;-70
2021/12/07 11:58:30;;;;;;;;;;;7.80;99.90;;;;;;5032086;28;19984;-68
2021/12/07 12:00:57;;;;;;;;;;;7.40;99.90;;;;;;5031904;28;20292;-69
2021/12/07 12:03:23;;;;;;;;;;;7.20;99.90;;;;;;5015762;28;19914;-70
2021/12/07 12:05:50;;;;;;;;;;;7.30;99.90;;;;;;5012165;28;19969;-70
2021/12/07 12:08:19;;;;;;;;;;;7.40;99.90;;;;;;5029976;28;19925;-69
2021/12/07 12:10:47;;;;;;;;;;;7.30;99.90;;;;;;5032956;28;21366;-69
2021/12/07 12:13:16;;;;;;;;;;;7.30;99.90;;;;;;5038299;28;19916;-69
2021/12/07 12:15:46;;;;;;;;;;;7.20;99.90;;;;;;5033832;28;20020;-71
2021/12/07 12:18:14;;;;;;;;;;;6.90;99.90;;;;;;5032922;28;19955;-71
2021/12/07 12:20:43;;;;;;;;;;;6.80;99.90;;;;;;5047608;28;20384;-69
2021/12/07 12:23:16;;;;;;;;;;;6.80;99.90;;;;;;5031642;28;20164;-71
2021/12/07 12:25:42;;;;;;;;;;;6.80;99.90;;;;;;5030535;28;19935;-71
2021/12/07 12:28:07;;;;;;;;;;;6.80;99.90;;;;;;5030096;28;19917;-69
2021/12/07 12:30:35;;;;;;;;;;;6.70;99.90;;;;;;5018302;28;19960;-69
2021/12/07 12:33:04;;;;;;;;;;;6.60;99.90;;;;;;5011190;28;19910;-67
2021/12/07 12:35:41;;;;;;;;;;;6.60;99.90;;;;;;5012356;28;19956;-69
2021/12/07 12:38:17;;;;;;;;;;;6.60;99.90;;;;;;5021756;28;19914;-68
2021/12/07 12:40:52;;;;;;;;;;;6.60;99.90;;;;;;5009697;28;20009;-68
2021/12/07 12:43:31;;;;;;;;;;;6.60;99.90;;;;;;5015195;28;19991;-69
2021/12/07 12:46:00;;;;;;;;;;;6.40;99.90;;;;;;5009745;28;20131;-69
2021/12/07 12:48:27;;;;;;;;;;;6.50;99.90;;;;;;5010608;28;19928;-69
2021/12/07 12:50:53;;;;;;;;;;;6.50;99.90;;;;;;5007690;28;19914;-70
2021/12/07 12:53:18;;;;;;;;;;;6.50;99.90;;;;;;5018088;28;20275;-68
2021/12/07 12:55:57;;;;;;;;;;;6.50;99.90;;;;;;5011014;28;19924;-68
2021/12/07 12:58:29;;;;;;;;;;;6.50;99.90;;;;;;5010408;28;20374;-68
2021/12/07 13:01:13;;;;;;;;;;;6.50;99.90;;;;;;5009797;28;19914;-69
2021/12/07 13:03:44;;;;;;;;;;;6.40;99.90;;;;;;5010158;28;19963;-68
2021/12/07 13:06:15;;;;;;;;;;;6.50;99.90;;;;;;5013639;28;19924;-69
2021/12/07 13:08:59;;;;;;;;;;;6.40;99.90;;;;;;5010814;28;19963;-70
2021/12/07 13:11:38;;;;;;;;;;;6.30;99.90;;;;;;5025044;28;19913;-66
2021/12/07 13:14:06;;;;;;;;;;;6.20;99.90;;;;;;5029105;28;19921;-68
2021/12/07 13:16:34;;;;;;;;;;;6.20;99.90;;;;;;5028889;28;19913;-68
2021/12/07 13:19:01;;;;;;;;;;;6.10;99.90;;;;;;5028660;28;19955;-67
2021/12/07 13:21:27;;;;;;;;;;;6.10;99.90;;;;;;5028280;28;19920;-68
2021/12/07 13:24:00;;;;;;;;;;;6.20;99.90;;;;;;5022351;28;19913;-67
2021/12/07 13:26:26;;;;;;;;;;;6.10;99.90;;;;;;5009147;28;19917;-67
2021/12/07 13:29:04;;;;;;;;;;;6.10;99.90;;;;;;5009153;28;20212;-69
2021/12/07 13:31:38;;;;;;;;;;;6.10;99.90;;;;;;5009905;28;20362;-69
2021/12/07 13:34:04;;;;;;;;;;;6.10;99.90;;;;;;5008066;28;19920;-67
2021/12/07 13:36:33;;;;;;;;;;;6.10;99.90;;;;;;5015670;28;19913;-67
2021/12/07 13:39:26;;;;;;;;;;;6.10;99.90;;;;;;5008985;28;19909;-69
2021/12/07 13:41:59;;;;;;;;;;;6.10;99.90;;;;;;5009234;28;20000;-69
2021/12/07 13:44:26;;;;;;;;;;;6.00;99.90;;;;;;5024537;28;19979;-69
2021/12/07 13:46:58;;;;;;;;;;;6.10;99.90;;;;;;5009165;28;19910;-70
2021/12/07 13:49:23;;;;;;;;;;;6.10;99.90;;;;;;5008805;28;19913;-69
2021/12/07 13:51:49;;;;;;;;;;;6.10;99.90;;;;;;5008561;28;20038;-69
2021/12/07 13:54:16;;;;;;;;;;;6.10;99.90;;;;;;5007571;28;20373;-69
2021/12/07 13:56:42;;;;;;;;;;;6.00;99.90;;;;;;5009243;28;20034;-67
2021/12/07 13:59:11;;;;;;;;;;;5.90;99.90;;;;;;5007313;28;19914;-69
2021/12/07 14:01:38;;;;;;;;;;;5.90;99.90;;;;;;5007237;28;20328;-68
2021/12/07 14:04:05;;;;;;;;;;;5.90;99.90;;;;;;5005824;28;19917;-67
2021/12/07 14:06:31;;;;;;;;;;;5.90;99.90;;;;;;5025402;28;19909;-68
2021/12/07 14:09:04;;;;;;;;;;;5.90;99.90;;;;;;5016987;28;19913;-67
2021/12/07 14:11:29;;;;;;;;;;;5.90;99.90;;;;;;5018045;28;19909;-68
2021/12/07 14:13:55;;;;;;;;;;;5.90;99.90;;;;;;5012798;28;19921;-69
2021/12/07 14:16:23;;;;;;;;;;;5.90;99.90;;;;;;5013261;28;19976;-67
2021/12/07 14:18:49;;;;;;;;;;;6.00;99.90;;;;;;5009654;28;19916;-68
2021/12/07 14:21:14;;;;;;;;;;;6.00;99.90;;;;;;5008982;28;20324;-67
2021/12/07 14:23:42;;;;;;;;;;;6.00;99.90;;;;;;5009228;28;19917;-69
2021/12/07 14:26:07;;;;;;;;;;;6.00;99.90;;;;;;5010402;28;19957;-67
2021/12/07 14:28:44;;;;;;;;;;;5.90;99.90;;;;;;5011176;28;19964;-67
2021/12/07 14:31:14;;;;;;;;;;;5.90;99.90;;;;;;5013250;28;20166;-70
2021/12/07 14:33:40;;;;;;;;;;;5.90;99.90;;;;;;5013454;28;19909;-69
2021/12/07 14:36:06;;;;;;;;;;;5.90;99.90;;;;;;5008440;28;20405;-67
2021/12/07 14:38:33;;;;;;;;;;;5.90;99.90;;;;;;5008312;28;19914;-69
2021/12/07 14:41:12;;;;;;;;;;;5.90;99.90;;;;;;5007112;28;20241;-68
2021/12/07 14:43:38;;;;;;;;;;;5.90;99.90;;;;;;5007348;28;19909;-66
2021/12/07 14:46:04;;;;;;;;;;;5.90;99.90;;;;;;5008364;28;20386;-67
2021/12/07 14:48:30;;;;;;;;;;;5.90;99.90;;;;;;5016557;28;19917;-67
2021/12/07 14:51:15;;;;;;;;;;;5.80;99.90;;;;;;5020492;28;20029;-68
2021/12/07 14:53:46;;;;;;;;;;;5.80;99.90;;;;;;5006681;28;19913;-69
2021/12/07 14:56:15;;;;;;;;;;;5.80;99.90;;;;;;5005838;28;19991;-69
2021/12/07 14:58:41;;;;;;;;;;;5.80;99.90;;;;;;5006604;28;20127;-69
2021/12/07 15:01:09;;;;;;;;;;;5.70;99.90;;;;;;5008826;28;19910;-68
2021/12/07 15:03:36;;;;;;;;;;;5.70;99.90;;;;;;5012685;28;19914;-67
2021/12/07 15:06:02;;;;;;;;;;;5.70;99.90;;;;;;5033291;28;19980;-69
2021/12/07 15:08:27;;;;;;;;;;;5.70;99.90;;;;;;5018190;28;20004;-68
2021/12/07 15:10:55;;;;;;;;;;;5.70;99.90;;;;;;5006485;28;20406;-68
2021/12/07 15:13:23;;;;;;;;;;;5.70;99.90;;;;;;5003203;28;19919;-67
2021/12/07 15:15:50;;;;;;;;;;;5.70;99.90;;;;;;5003674;28;19914;-69
2021/12/07 15:18:16;;;;;;;;;;;5.60;99.90;;;;;;5004590;28;19917;-68
2021/12/07 15:20:41;;;;;;;;;;;5.60;99.90;;;;;;5004524;28;20286;-70
2021/12/07 15:23:06;;;;;;;;;;;5.50;99.90;;;;;;5003723;28;20389;-68
2021/12/07 15:25:32;;;;;;;;;;;5.50;99.90;;;;;;5004110;28;19980;-67
2021/12/07 15:27:59;;;;;;;;;;;5.50;99.90;;;;;;5006383;28;19910;-66
2021/12/07 15:30:24;;;;;;;;;;;5.50;99.90;;;;;;5007886;28;19917;-69
2021/12/07 15:32:50;;;;;;;;;;;5.50;99.90;;;;;;5009455;28;20444;-69
2021/12/07 15:35:19;;;;;;;;;;;5.40;99.90;;;;;;5008741;28;20309;-67
2021/12/07 15:37:45;;;;;;;;;;;5.40;99.90;;;;;;5008081;28;19996;-68
2021/12/07 15:40:11;;;;;;;;;;;5.40;99.90;;;;;;5008593;28;20001;-69
2021/12/07 15:42:37;;;;;;;;;;;5.40;99.90;;;;;;5009239;28;20092;-67
2021/12/07 15:45:03;;;;;;;;;;;5.40;99.90;;;;;;5008944;28;20338;-67
2021/12/07 15:47:34;;;;;;;;;;;5.30;99.90;;;;;;5006460;28;20015;-68
2021/12/07 15:50:05;;;;;;;;;;;5.40;99.90;;;;;;5007954;28;19965;-68
2021/12/07 15:52:31;;;;;;;;;;;5.30;99.90;;;;;;5007620;28;19910;-65
2021/12/07 15:54:59;;;;;;;;;;;5.40;99.90;;;;;;5025501;28;20256;-67
2021/12/07 15:57:25;;;;;;;;;;;5.30;99.90;;;;;;5024175;28;20321;-69
2021/12/07 15:59:56;;;;;;;;;;;5.30;99.90;;;;;;5006447;28;20389;-70
2021/12/07 16:02:22;;;;;;;;;;;5.30;99.90;;;;;;5006443;28;19917;-68
2021/12/07 16:04:47;;;;;;;;;;;5.30;99.90;;;;;;5016151;28;19917;-68
2021/12/07 16:07:22;;;;;;;;;;;5.30;99.90;;;;;;5020440;28;20248;-71